Time;durP1;ratioP1;P1;durP2;ratioP2;P2;SDS_P1;SDS_P2;PMS_P1;PMS_P2;Temp;Humidity;BMP_temperature;BMP_pressure;BME280_temperature;BME280_humidity;BME280_pressure;Samples;Min_cycle;Max_cycle;Signal;HPM_P1;HPM_P2
2023/12/28 00:02:19;;;;;;;1.45;1.05;;;;;;;8.72;77.52;100167.50;4931505;29;20059;-82
2023/12/28 00:04:45;;;;;;;2.42;1.00;;;;;;;8.74;78.10;100171.84;4927219;29;20149;-81
2023/12/28 00:07:13;;;;;;;0.80;0.80;;;;;;;8.70;77.77;100164.06;4909699;29;20509;-83
2023/12/28 00:09:40;;;;;;;4.43;1.00;;;;;;;8.71;77.82;100171.88;4926464;29;20059;-82
2023/12/28 00:12:07;;;;;;;3.72;1.40;;;;;;;8.68;77.74;100163.19;4912946;29;20204;-83
2023/12/28 00:14:35;;;;;;;2.78;0.82;;;;;;;8.66;77.78;100157.16;4929141;29;20059;-83
2023/12/28 00:17:01;;;;;;;3.15;1.25;;;;;;;8.72;77.99;100162.28;4917271;29;20507;-84
2023/12/28 00:19:28;;;;;;;4.63;1.20;;;;;;;8.66;78.57;100151.94;4924415;29;20509;-83
2023/12/28 00:21:55;;;;;;;1.27;1.02;;;;;;;8.61;78.40;100165.00;4911274;29;20143;-84
2023/12/28 00:24:22;;;;;;;2.70;1.52;;;;;;;8.65;78.81;100173.69;4929433;29;20476;-82
2023/12/28 00:26:48;;;;;;;1.85;1.02;;;;;;;8.63;79.18;100184.13;4918175;29;20059;-81
2023/12/28 00:29:15;;;;;;;5.63;2.05;;;;;;;8.67;79.11;100201.50;4928073;29;20058;-83
2023/12/28 00:31:41;;;;;;;1.95;1.20;;;;;;;8.65;79.39;100203.22;4927445;29;20055;-83
2023/12/28 00:34:08;;;;;;;2.25;1.08;;;;;;;8.76;79.88;100208.34;4914759;29;20066;-82
2023/12/28 00:36:34;;;;;;;1.90;1.15;;;;;;;8.87;80.03;100213.50;4929566;29;20509;-83
2023/12/28 00:39:01;;;;;;;2.92;1.33;;;;;;;8.97;79.99;100222.09;4929026;29;20106;-82
2023/12/28 00:41:27;;;;;;;2.67;1.50;;;;;;;9.02;80.53;100218.59;4913045;29;20556;-82
2023/12/28 00:43:54;;;;;;;3.13;1.00;;;;;;;9.03;81.68;100216.81;4942821;29;20782;-81
2023/12/28 00:46:21;;;;;;;1.40;0.80;;;;;;;9.05;83.65;100210.69;4912565;29;20508;-83
2023/12/28 00:48:47;;;;;;;1.73;0.93;;;;;;;9.08;85.01;100208.06;4917588;29;20504;-83
2023/12/28 00:51:14;;;;;;;1.00;0.90;;;;;;;9.02;88.00;100218.59;4927110;29;20808;-83
2023/12/28 00:53:41;;;;;;;2.33;1.20;;;;;;;9.02;91.40;100210.75;4930840;29;20055;-82
2023/12/28 00:56:08;;;;;;;0.57;0.57;;;;;;;8.91;94.76;100213.44;4928547;29;20047;-83
2023/12/28 00:58:34;;;;;;;3.80;1.52;;;;;;;8.89;96.42;100223.03;4929975;29;20106;-83
2023/12/28 01:01:01;;;;;;;1.95;0.73;;;;;;;8.89;98.79;100220.44;4925319;29;20051;-82
2023/12/28 01:03:27;;;;;;;2.05;1.02;;;;;;;8.71;100.00;100218.84;4922770;29;20059;-82
2023/12/28 01:05:54;;;;;;;1.38;0.55;;;;;;;8.67;100.00;100222.38;4909871;29;20055;-82
2023/12/28 01:08:20;;;;;;;2.45;1.00;;;;;;;8.55;100.00;100244.19;4941141;29;20051;-82
2023/12/28 01:10:47;;;;;;;1.13;1.00;;;;;;;8.56;100.00;100255.50;4925331;29;20055;-82
2023/12/28 01:13:13;;;;;;;2.55;1.20;;;;;;;8.46;100.00;100235.56;4929188;29;20055;-81
2023/12/28 01:15:40;;;;;;;1.83;1.00;;;;;;;8.36;100.00;100248.63;4931966;29;20055;-83
2023/12/28 01:18:06;;;;;;;4.00;1.48;;;;;;;8.39;100.00;100251.22;4915327;29;20058;-82
2023/12/28 01:20:34;;;;;;;2.83;1.20;;;;;;;8.32;100.00;100261.69;4929506;29;20043;-83
2023/12/28 01:23:01;;;;;;;4.28;1.25;;;;;;;8.29;100.00;100262.56;4914381;29;20147;-82
2023/12/28 01:25:27;;;;;;;1.10;1.10;;;;;;;8.32;100.00;100244.31;4929189;29;20058;-82
2023/12/28 01:27:54;;;;;;;1.48;1.40;;;;;;;8.35;100.00;100238.22;4928525;29;20075;-83
2023/12/28 01:30:20;;;;;;;1.58;1.48;;;;;;;8.38;100.00;100241.69;4940864;29;20107;-83
2023/12/28 01:32:51;;;;;;;1.88;0.75;;;;;;;8.31;100.00;100242.56;4949143;29;20094;-83
2023/12/28 01:35:18;;;;;;;1.92;0.65;;;;;;;8.33;100.00;100240.84;4933138;29;20057;-83
2023/12/28 01:37:44;;;;;;;4.45;0.82;;;;;;;8.40;100.00;100239.06;4916537;29;20097;-83
2023/12/28 01:40:12;;;;;;;1.35;0.77;;;;;;;8.48;100.00;100244.25;4928248;29;20055;-84
2023/12/28 01:42:39;;;;;;;1.75;0.95;;;;;;;8.51;100.00;100242.47;4931991;29;20058;-84
2023/12/28 01:45:06;;;;;;;1.55;1.02;;;;;;;8.54;100.00;100247.69;4916415;29;20086;-83
2023/12/28 01:47:32;;;;;;;2.05;1.13;;;;;;;8.49;100.00;100259.88;4929071;29;20059;-83
2023/12/28 01:50:00;;;;;;;1.75;1.65;;;;;;;8.48;100.00;100260.75;4922943;29;20075;-83
2023/12/28 01:52:28;;;;;;;1.60;1.10;;;;;;;8.56;100.00;100253.72;4930524;29;20043;-83
2023/12/28 01:54:55;;;;;;;3.78;0.90;;;;;;;8.58;100.00;100252.00;4932321;29;20048;-81
2023/12/28 01:57:21;;;;;;;1.10;1.00;;;;;;;8.56;100.00;100264.16;4922812;29;20047;-82
2023/12/28 01:59:48;;;;;;;3.00;0.93;;;;;;;8.55;100.00;100267.69;4911331;29;20047;-82
2023/12/28 02:02:16;;;;;;;0.90;0.77;;;;;;;8.57;100.00;100255.47;4928177;29;20103;-82
2023/12/28 02:04:44;;;;;;;1.00;0.95;;;;;;;8.57;100.00;100262.44;4929724;29;20055;-83
2023/12/28 02:07:11;;;;;;;1.58;1.13;;;;;;;8.65;100.00;100259.78;4908725;29;20093;-83
2023/12/28 02:09:38;;;;;;;1.75;1.20;;;;;;;8.65;100.00;100265.84;4918286;29;20135;-82
2023/12/28 02:12:05;;;;;;;1.50;1.33;;;;;;;8.66;100.00;100269.34;4913207;29;20575;-82
2023/12/28 02:14:32;;;;;;;1.67;1.20;;;;;;;8.65;100.00;100265.84;4911275;29;20111;-82
2023/12/28 02:17:13;;;;;;;0.93;0.93;;;;;;;8.61;100.00;100272.84;4928522;29;20051;-82
2023/12/28 02:19:55;;;;;;;3.05;1.00;;;;;;;8.64;100.00;100277.16;4923822;29;20048;-83
2023/12/28 02:22:26;;;;;;;1.52;1.23;;;;;;;8.68;100.00;100272.78;4923215;29;20055;-82
2023/12/28 02:25:06;;;;;;;3.03;1.48;;;;;;;8.68;100.00;100283.22;4943647;29;20063;-82
2023/12/28 02:27:37;;;;;;;1.42;1.10;;;;;;;8.67;100.00;100286.72;4927407;29;20044;-83
2023/12/28 02:30:04;;;;;;;1.08;1.08;;;;;;;8.68;100.00;100276.28;4928024;29;20123;-84
2023/12/28 02:32:57;;;;;;;2.65;1.15;;;;;;;8.66;100.00;100288.47;4941605;29;20670;-81
2023/12/28 02:35:53;;;;;;;2.08;1.75;;;;;;;8.69;100.00;100292.81;4944652;29;20054;-82
2023/12/28 02:38:20;;;;;;;4.63;1.40;;;;;;;8.66;100.00;100285.84;4910449;29;20047;-82
2023/12/28 02:40:48;;;;;;;1.50;1.00;;;;;;;8.65;100.00;100291.09;4915572;29;20063;-82
2023/12/28 02:43:16;;;;;;;1.83;1.20;;;;;;;8.63;100.00;100291.13;4912674;29;20050;-83
2023/12/28 02:45:42;;;;;;;2.42;1.48;;;;;;;8.69;100.00;100298.88;4913698;29;20149;-82
2023/12/28 02:48:08;;;;;;;0.80;0.80;;;;;;;8.72;100.00;100303.19;4944371;28;20043;-82
2023/12/28 02:50:36;;;;;;;1.75;1.52;;;;;;;8.74;100.00;100309.28;4922045;29;20047;-82
2023/12/28 02:53:04;;;;;;;1.85;1.60;;;;;;;8.73;100.00;100305.81;4915203;29;20065;-82
2023/12/28 02:55:30;;;;;;;2.03;1.05;;;;;;;8.76;100.00;100299.69;4929741;29;20126;-82
2023/12/28 02:57:59;;;;;;;1.33;1.23;;;;;;;8.77;100.00;100302.31;4917637;29;20062;-85
2023/12/28 03:00:26;;;;;;;1.33;1.23;;;;;;;8.83;100.00;100309.22;4940244;29;20055;-82
2023/12/28 03:02:53;;;;;;;2.50;1.50;;;;;;;8.81;100.00;100305.75;4900630;29;20302;-81
2023/12/28 03:05:19;;;;;;;1.10;1.00;;;;;;;8.82;100.00;100304.03;4915688;29;20043;-82
2023/12/28 03:07:49;;;;;;;3.55;1.90;;;;;;;8.86;100.00;100305.72;4927033;29;20531;-84
2023/12/28 03:10:16;;;;;;;3.33;2.03;;;;;;;8.84;100.00;100302.25;4917999;29;20062;-83
2023/12/28 03:12:42;;;;;;;1.63;1.52;;;;;;;8.85;100.00;100293.53;4929263;29;20044;-83
2023/12/28 03:15:09;;;;;;;3.63;1.40;;;;;;;8.86;100.00;100290.06;4929924;29;20047;-83
2023/12/28 03:17:36;;;;;;;3.05;1.33;;;;;;;8.86;100.00;100303.13;4918231;29;20051;-83
2023/12/28 03:20:05;;;;;;;2.53;1.38;;;;;;;8.89;100.00;100303.97;4929182;29;20055;-82
2023/12/28 03:22:33;;;;;;;1.58;1.02;;;;;;;8.97;100.00;100300.41;4931398;29;20055;-84
2023/12/28 03:25:00;;;;;;;2.70;1.45;;;;;;;8.93;100.00;100291.75;4930166;29;20051;-83
2023/12/28 03:27:30;;;;;;;1.45;1.35;;;;;;;8.96;100.00;100290.84;4925482;29;20058;-81
2023/12/28 03:29:56;;;;;;;2.47;1.00;;;;;;;8.94;100.00;100296.09;4912886;29;20067;-83
2023/12/28 03:32:23;;;;;;;3.92;1.63;;;;;;;8.96;100.00;100286.50;4914211;29;20302;-83
2023/12/28 03:34:49;;;;;;;2.92;1.13;;;;;;;9.02;100.00;100290.81;4935480;29;20070;-81
2023/12/28 03:37:16;;;;;;;1.90;1.15;;;;;;;9.01;100.00;100289.06;4915179;29;20047;-82
2023/12/28 03:39:42;;;;;;;0.75;0.75;;;;;;;9.04;100.00;100294.28;4928037;29;20499;-84
2023/12/28 03:42:09;;;;;;;1.80;1.17;;;;;;;9.02;100.00;100286.47;4926493;29;20478;-83
2023/12/28 03:44:35;;;;;;;1.38;1.27;;;;;;;9.12;100.00;100308.13;4932819;29;20050;-82
2023/12/28 03:47:02;;;;;;;4.13;1.20;;;;;;;9.12;100.00;100295.06;4934445;29;20073;-81
2023/12/28 03:49:29;;;;;;;2.67;0.93;;;;;;;9.17;100.00;100297.66;4945382;29;20051;-82
2023/12/28 03:51:56;;;;;;;2.67;1.10;;;;;;;9.22;100.00;100314.16;4922863;29;20055;-82
2023/12/28 03:54:23;;;;;;;1.33;0.93;;;;;;;9.25;100.00;100306.28;4931311;29;20062;-82
2023/12/28 03:56:49;;;;;;;1.95;1.15;;;;;;;9.34;100.00;100300.09;4933683;29;20484;-82
2023/12/28 03:59:16;;;;;;;1.83;1.00;;;;;;;9.34;100.00;100294.88;4920593;29;20137;-81
2023/12/28 04:01:42;;;;;;;2.85;0.70;;;;;;;9.36;100.00;100303.56;4930084;29;20110;-82
2023/12/28 04:04:09;;;;;;;2.20;1.20;;;;;;;9.37;100.00;100300.06;4911751;29;20050;-82
2023/12/28 04:06:36;;;;;;;2.17;1.38;;;;;;;9.34;100.00;100307.94;4925781;29;20043;-82
2023/12/28 04:09:03;;;;;;;4.25;1.17;;;;;;;9.38;100.00;100307.03;4928475;29;20051;-82
2023/12/28 04:11:32;;;;;;;1.90;1.23;;;;;;;9.33;100.00;100299.22;4932768;29;20398;-82
2023/12/28 04:13:59;;;;;;;1.45;1.30;;;;;;;9.38;100.00;100299.19;4930162;29;20469;-82
2023/12/28 04:16:26;;;;;;;1.92;1.20;;;;;;;9.34;100.00;100297.50;4915006;29;20062;-82
2023/12/28 04:18:52;;;;;;;1.25;1.20;;;;;;;9.38;100.00;100293.97;4929938;29;20062;-82
2023/12/28 04:21:19;;;;;;;1.63;1.52;;;;;;;9.41;100.00;100283.47;4929457;29;20094;-81
2023/12/28 04:23:45;;;;;;;2.47;1.23;;;;;;;9.40;100.00;100297.44;4913037;29;20119;-82
2023/12/28 04:26:12;;;;;;;3.17;1.58;;;;;;;9.39;100.00;100295.72;4926684;29;20043;-83
2023/12/28 04:28:38;;;;;;;3.45;1.55;;;;;;;9.36;100.00;100294.00;4929020;29;20043;-81
2023/12/28 04:31:06;;;;;;;4.00;1.95;;;;;;;9.32;100.00;100289.69;4911609;29;20076;-82
2023/12/28 04:33:33;;;;;;;1.65;1.20;;;;;;;9.37;100.00;100285.28;4914633;29;20065;-83
2023/12/28 04:36:05;;;;;;;2.72;1.00;;;;;;;9.37;100.00;100295.72;4918208;29;20058;-81
2023/12/28 04:38:32;;;;;;;6.90;1.65;;;;;;;9.36;100.00;100290.50;4919853;29;20043;-82
2023/12/28 04:40:59;;;;;;;1.27;1.05;;;;;;;9.37;100.00;100287.88;4929009;29;20288;-81
2023/12/28 04:43:26;;;;;;;2.92;1.23;;;;;;;9.40;100.00;100295.69;4930676;29;20365;-81
2023/12/28 04:45:55;;;;;;;2.33;1.55;;;;;;;9.43;100.00;100294.78;4927479;29;20521;-82
2023/12/28 04:48:23;;;;;;;2.50;1.35;;;;;;;9.38;100.00;100301.81;4908127;29;20055;-82
2023/12/28 04:50:51;;;;;;;1.23;1.13;;;;;;;9.41;100.00;100301.75;4945293;29;20413;-81
2023/12/28 04:53:17;;;;;;;1.40;1.30;;;;;;;9.39;100.00;100285.25;4932355;29;20126;-83
2023/12/28 04:55:47;;;;;;;3.38;1.35;;;;;;;9.37;100.00;100290.50;4913821;29;20058;-83
2023/12/28 04:58:14;;;;;;;3.17;1.73;;;;;;;9.35;100.00;100292.25;4926470;29;20133;-81
2023/12/28 05:00:40;;;;;;;1.38;1.30;;;;;;;9.31;100.00;100284.44;4915367;29;20077;-82
2023/12/28 05:03:07;;;;;;;3.05;1.10;;;;;;;9.36;100.00;100293.09;4924216;29;20516;-82
2023/12/28 05:05:33;;;;;;;1.73;1.20;;;;;;;9.31;100.00;100290.56;4927920;29;20114;-81
2023/12/28 05:08:00;;;;;;;2.78;1.27;;;;;;;9.33;100.00;100286.16;4917573;29;20509;-82
2023/12/28 05:10:27;;;;;;;2.10;1.45;;;;;;;9.31;100.00;100289.66;4912893;29;20075;-82
2023/12/28 05:12:53;;;;;;;2.53;1.35;;;;;;;9.27;100.00;100300.16;4926536;29;20631;-81
2023/12/28 05:15:20;;;;;;;2.83;1.77;;;;;;;9.23;100.00;100305.41;4922826;29;20676;-82
2023/12/28 05:17:46;;;;;;;3.75;1.15;;;;;;;9.22;100.00;100306.31;4925206;29;20043;-83
2023/12/28 05:20:13;;;;;;;0.90;0.90;;;;;;;9.25;100.00;100303.66;4925516;29;20103;-82
2023/12/28 05:22:40;;;;;;;1.13;1.05;;;;;;;9.33;100.00;100299.22;4925882;29;20164;-82
2023/12/28 05:25:07;;;;;;;3.08;1.55;;;;;;;9.37;100.00;100306.19;4944307;29;20047;-83
2023/12/28 05:27:36;;;;;;;1.40;1.40;;;;;;;9.38;100.00;100300.03;4914481;29;20047;-82
2023/12/28 05:30:02;;;;;;;2.10;1.23;;;;;;;9.35;100.00;100307.06;4917197;29;20047;-83
2023/12/28 05:32:29;;;;;;;1.30;1.00;;;;;;;9.33;100.00;100311.44;4916580;29;20667;-83
2023/12/28 05:34:55;;;;;;;3.58;1.15;;;;;;;9.35;100.00;100307.06;4925159;29;20058;-83
2023/12/28 05:37:22;;;;;;;3.78;1.63;;;;;;;9.36;100.00;100312.28;4930021;29;20215;-84
2023/12/28 05:39:48;;;;;;;3.35;1.40;;;;;;;9.42;100.00;100308.72;4943198;29;20288;-82
2023/12/28 05:42:15;;;;;;;2.03;1.20;;;;;;;9.45;100.00;100321.75;4910018;29;20067;-82
2023/12/28 05:44:41;;;;;;;7.93;1.58;;;;;;;9.46;100.00;100313.03;4915761;29;20059;-84
2023/12/28 05:47:08;;;;;;;1.48;1.38;;;;;;;9.54;100.00;100305.13;4932982;29;20093;-83
2023/12/28 05:49:34;;;;;;;1.00;1.00;;;;;;;9.57;100.00;100316.41;4916255;29;20048;-83
2023/12/28 05:52:01;;;;;;;1.88;1.45;;;;;;;9.56;100.00;100327.75;4925793;29;20056;-83
2023/12/28 05:54:27;;;;;;;1.75;0.93;;;;;;;9.81;100.00;100322.25;4913885;29;20055;-83
2023/12/28 05:56:54;;;;;;;3.40;0.90;;;;;;;9.93;100.00;100334.31;4911017;29;20089;-82
2023/12/28 05:59:21;;;;;;;4.85;1.17;;;;;;;9.80;100.00;100317.91;4941905;29;20043;-83
2023/12/28 06:01:48;;;;;;;1.25;1.13;;;;;;;9.76;100.00;100311.88;4919159;29;20078;-82
2023/12/28 06:04:14;;;;;;;2.13;0.90;;;;;;;9.85;100.00;100310.88;4931690;29;20071;-84
2023/12/28 06:06:41;;;;;;;2.33;0.80;;;;;;;9.96;100.00;100322.97;4936312;29;20108;-83
2023/12/28 06:09:08;;;;;;;5.55;0.98;;;;;;;9.93;100.00;100321.25;4940033;29;20054;-83
2023/12/28 06:11:34;;;;;;;2.85;0.85;;;;;;;9.93;99.35;100316.91;4955449;29;20424;-83
2023/12/28 06:14:03;;;;;;;3.20;1.60;;;;;;;9.96;99.13;100317.72;4941546;29;20174;-83
2023/12/28 06:16:32;;;;;;;4.78;1.23;;;;;;;9.93;98.09;100295.09;4949855;29;20039;-83
2023/12/28 06:18:59;;;;;;;5.45;1.35;;;;;;;9.98;97.79;100321.22;4940237;29;20086;-83
2023/12/28 06:21:25;;;;;;;2.33;0.85;;;;;;;9.94;98.05;100315.13;4920932;29;20044;-83
2023/12/28 06:23:52;;;;;;;1.35;1.25;;;;;;;9.89;97.67;100314.31;4937785;29;20051;-84
2023/12/28 06:26:19;;;;;;;4.95;1.50;;;;;;;9.85;97.49;100325.72;4953510;29;20077;-83
2023/12/28 06:28:45;;;;;;;0.80;0.80;;;;;;;9.78;97.45;100332.75;4941527;29;20075;-82
2023/12/28 06:31:14;;;;;;;2.05;0.80;;;;;;;9.78;97.41;100324.91;4930099;29;20766;-83
2023/12/28 06:33:41;;;;;;;2.80;0.95;;;;;;;9.69;98.06;100320.66;4945847;29;20047;-83
2023/12/28 06:36:08;;;;;;;2.17;0.93;;;;;;;9.65;98.15;100332.03;4940578;29;20050;-83
2023/12/28 06:38:34;;;;;;;7.50;1.33;;;;;;;9.60;98.55;100326.81;4927612;29;20070;-82
2023/12/28 06:41:12;;;;;;;3.55;1.00;;;;;;;9.61;97.79;100335.56;4955583;29;20139;-83
2023/12/28 06:43:39;;;;;;;3.08;1.10;;;;;;;9.62;97.51;100347.75;4940706;29;20173;-83
2023/12/28 06:48:58;;;;;;;5.28;2.28;;;;;;;9.65;96.48;100347.69;4952055;29;20094;-83
2023/12/28 06:51:26;;;;;;;3.60;1.60;;;;;;;9.66;96.23;100336.38;4925019;29;20457;-83
2023/12/28 06:53:53;;;;;;;3.78;1.20;;;;;;;9.66;96.21;100325.91;4931521;29;20067;-82
2023/12/28 06:56:18;;;;;;;3.20;0.98;;;;;;;9.57;96.58;100321.63;4940253;28;20595;-82
2023/12/28 06:58:45;;;;;;;1.38;1.02;;;;;;;9.59;96.53;100327.72;4930294;29;20075;-83
2023/12/28 07:01:12;;;;;;;2.28;1.40;;;;;;;9.54;96.80;100326.03;4945563;29;20062;-84
2023/12/28 07:03:41;;;;;;;1.83;0.65;;;;;;;9.57;96.17;100334.72;4941515;29;20098;-84
2023/12/28 07:06:08;;;;;;;1.90;0.47;;;;;;;9.57;96.36;100331.25;4941005;29;20102;-84
2023/12/28 07:08:35;;;;;;;2.40;1.10;;;;;;;9.54;96.56;100339.97;4929933;29;20055;-83
2023/12/28 07:11:03;;;;;;;4.88;0.90;;;;;;;9.52;96.75;100330.41;4942661;29;20409;-83
2023/12/28 07:13:29;;;;;;;3.42;0.93;;;;;;;9.50;96.37;100332.16;4925881;29;20071;-83
2023/12/28 07:15:56;;;;;;;3.72;1.00;;;;;;;9.52;95.97;100341.72;4940556;29;20061;-83
2023/12/28 07:18:23;;;;;;;2.25;0.70;;;;;;;9.53;95.90;100340.84;4955774;29;20094;-83
2023/12/28 07:20:49;;;;;;;10.05;2.85;;;;;;;9.56;95.23;100345.19;4928077;29;20154;-83
2023/12/28 07:23:16;;;;;;;3.25;1.50;;;;;;;9.63;94.82;100354.69;4925091;29;20043;-82
2023/12/28 07:25:44;;;;;;;2.78;1.00;;;;;;;9.67;94.58;100358.13;4953395;28;20047;-85
2023/12/28 07:28:13;;;;;;;3.58;0.90;;;;;;;9.62;94.54;100366.03;4942307;29;20079;-83
2023/12/28 07:30:41;;;;;;;4.45;2.38;;;;;;;9.67;94.07;100360.75;4923428;29;20046;-84
2023/12/28 07:33:07;;;;;;;3.40;0.93;;;;;;;9.71;93.42;100365.06;4931948;29;20040;-82
2023/12/28 07:35:34;;;;;;;2.22;1.15;;;;;;;9.71;93.48;100357.22;4927949;29;20086;-83
2023/12/28 07:38:00;;;;;;;6.13;0.95;;;;;;;9.77;93.11;100367.63;4930895;29;20043;-82
2023/12/28 07:40:27;;;;;;;2.40;0.93;;;;;;;9.72;92.83;100367.66;4931356;28;20047;-82
2023/12/28 07:42:53;;;;;;;4.70;0.98;;;;;;;9.78;92.99;100364.13;4929709;29;20275;-83
2023/12/28 07:45:24;;;;;;;4.18;1.15;;;;;;;9.75;92.45;100351.94;4915951;29;20576;-83
2023/12/28 07:47:53;;;;;;;1.83;0.93;;;;;;;9.76;92.35;100361.53;4914338;29;20082;-83
2023/12/28 07:50:26;;;;;;;4.03;0.80;;;;;;;9.72;92.34;100364.19;4941988;29;20539;-82
2023/12/28 07:52:53;;;;;;;2.22;0.63;;;;;;;9.70;92.02;100358.09;4928896;29;20069;-83
2023/12/28 07:55:20;;;;;;;4.05;0.90;;;;;;;9.71;91.99;100372.91;4916454;29;20071;-83
2023/12/28 07:57:46;;;;;;;3.50;0.80;;;;;;;9.67;91.15;100374.66;4924602;29;20107;-82
2023/12/28 08:00:16;;;;;;;0.80;0.60;;;;;;;9.70;90.91;100363.31;4911915;29;20054;-82
2023/12/28 08:02:43;;;;;;;0.80;0.80;;;;;;;9.75;91.34;100379.81;4942753;29;20134;-83
2023/12/28 08:05:10;;;;;;;2.20;1.38;;;;;;;9.67;91.50;100379.03;4932681;29;20051;-82
2023/12/28 08:07:36;;;;;;;1.88;1.00;;;;;;;9.72;90.92;100379.88;4919549;29;20047;-82
2023/12/28 08:10:03;;;;;;;4.05;0.80;;;;;;;9.77;90.11;100386.75;4945340;29;20039;-83
2023/12/28 08:12:30;;;;;;;3.25;0.85;;;;;;;9.77;90.46;100394.59;4918932;29;20138;-84
2023/12/28 08:14:56;;;;;;;5.25;1.13;;;;;;;9.71;90.41;100394.69;4914231;29;20146;-83
2023/12/28 08:17:23;;;;;;;3.20;1.25;;;;;;;9.77;90.29;100406.81;4909985;29;20043;-84
2023/12/28 08:19:50;;;;;;;5.85;0.60;;;;;;;9.75;89.73;100405.97;4921061;29;20047;-83
2023/12/28 08:22:16;;;;;;;2.33;0.75;;;;;;;9.80;89.88;100404.16;4913636;29;20044;-83
2023/12/28 08:24:43;;;;;;;5.03;0.80;;;;;;;9.79;89.42;100407.69;4913030;29;20047;-82
2023/12/28 08:27:09;;;;;;;2.97;0.80;;;;;;;9.82;89.13;100406.78;4934331;29;20043;-83
2023/12/28 08:29:36;;;;;;;4.07;1.83;;;;;;;9.85;88.79;100418.06;4915176;29;20058;-82
2023/12/28 08:32:03;;;;;;;1.75;1.10;;;;;;;9.84;88.42;100407.63;4927710;29;20240;-82
2023/12/28 08:34:29;;;;;;;2.45;1.23;;;;;;;9.84;88.41;100416.34;4919722;29;20445;-84
2023/12/28 08:36:56;;;;;;;2.75;0.82;;;;;;;9.91;88.04;100414.53;4931428;29;20552;-83
2023/12/28 08:39:22;;;;;;;0.98;0.95;;;;;;;9.91;87.82;100417.16;4913117;29;20102;-84
2023/12/28 08:41:49;;;;;;;1.38;0.85;;;;;;;9.89;87.34;100417.16;4911142;29;20146;-84
2023/12/28 08:44:16;;;;;;;4.38;1.10;;;;;;;9.95;87.49;100421.47;4932793;29;20058;-83
2023/12/28 08:46:42;;;;;;;3.65;0.88;;;;;;;9.96;87.11;100417.09;4908121;29;20051;-83
2023/12/28 08:49:09;;;;;;;3.08;1.25;;;;;;;10.02;86.73;100401.34;4930265;29;20078;-83
2023/12/28 08:51:36;;;;;;;2.92;1.25;;;;;;;10.01;86.74;100413.56;4927087;29;20053;-84
2023/12/28 08:54:02;;;;;;;6.30;0.90;;;;;;;9.99;86.30;100412.72;4917543;29;20450;-82
2023/12/28 08:56:30;;;;;;;2.30;1.10;;;;;;;10.03;86.65;100424.88;4909993;29;20059;-83
2023/12/28 08:58:59;;;;;;;3.40;1.17;;;;;;;9.99;86.35;100423.16;4929773;29;20055;-83
2023/12/28 09:01:31;;;;;;;2.67;0.88;;;;;;;9.99;85.88;100417.94;4914421;29;20081;-83
2023/12/28 09:03:59;;;;;;;3.55;1.50;;;;;;;10.09;85.23;100439.66;4933440;29;20114;-83
2023/12/28 09:06:29;;;;;;;3.58;1.40;;;;;;;10.13;84.89;100428.25;4913062;29;20063;-82
2023/12/28 09:08:56;;;;;;;1.55;1.15;;;;;;;10.13;84.83;100430.00;4917425;29;20063;-83
2023/12/28 09:11:23;;;;;;;1.75;0.90;;;;;;;10.13;84.55;100425.66;4946577;28;20128;-84
2023/12/28 09:13:49;;;;;;;2.05;0.90;;;;;;;10.11;84.78;100430.00;4938821;29;20082;-83
2023/12/28 09:16:17;;;;;;;3.28;1.48;;;;;;;10.12;84.64;100426.53;4925000;29;20107;-83
2023/12/28 09:18:45;;;;;;;4.25;1.42;;;;;;;10.25;84.30;100435.09;4940590;29;20047;-83
2023/12/28 09:21:11;;;;;;;6.70;1.55;;;;;;;10.18;84.16;100430.81;4910213;29;20054;-84
2023/12/28 09:23:40;;;;;;;5.55;1.92;;;;;;;10.25;83.48;100438.56;4926151;29;20055;-83
2023/12/28 09:26:07;;;;;;;7.05;1.48;;;;;;;10.27;83.76;100431.59;4920367;29;20134;-82
2023/12/28 09:28:36;;;;;;;8.98;1.23;;;;;;;10.28;83.28;100424.59;4914129;29;20051;-82
2023/12/28 09:31:04;;;;;;;2.50;0.90;;;;;;;10.22;83.50;100420.31;4940190;28;20047;-82
2023/12/28 09:33:32;;;;;;;2.60;1.48;;;;;;;10.29;82.55;100436.81;4948216;29;20050;-81
2023/12/28 09:35:59;;;;;;;2.92;1.20;;;;;;;10.37;83.19;100427.13;4933234;29;20047;-84
2023/12/28 09:38:27;;;;;;;4.75;1.20;;;;;;;10.36;82.80;100430.63;4935628;29;20138;-82
2023/12/28 09:40:55;;;;;;;1.75;1.02;;;;;;;10.36;82.79;100420.16;4920076;29;20575;-82
2023/12/28 09:43:39;;;;;;;4.55;1.23;;;;;;;10.40;82.44;100429.72;4916721;29;20040;-84
2023/12/28 09:46:11;;;;;;;4.03;1.70;;;;;;;10.39;82.11;100425.38;4913519;29;20054;-82
2023/12/28 09:48:40;;;;;;;1.73;1.20;;;;;;;10.46;81.87;100431.41;4917726;29;20062;-81
2023/12/28 09:51:07;;;;;;;3.80;1.70;;;;;;;10.52;81.89;100427.84;4911265;29;20047;-84
2023/12/28 09:53:34;;;;;;;5.20;1.48;;;;;;;10.49;81.30;100433.13;4919743;28;20053;-84
2023/12/28 09:56:02;;;;;;;4.68;1.27;;;;;;;10.43;81.16;100421.84;4931055;29;20039;-83
2023/12/28 09:58:32;;;;;;;1.70;0.93;;;;;;;10.46;81.68;100433.16;4940163;29;20098;-84
2023/12/28 10:01:00;;;;;;;1.70;1.00;;;;;;;10.56;81.24;100427.78;4930454;29;20052;-83
2023/12/28 10:03:28;;;;;;;2.60;0.88;;;;;;;10.57;80.37;100413.81;4927968;29;20824;-84
2023/12/28 10:05:54;;;;;;;5.10;2.15;;;;;;;10.78;79.91;100431.88;4925851;29;20071;-81
2023/12/28 10:08:21;;;;;;;2.10;1.45;;;;;;;10.78;79.37;100419.66;4920288;29;20050;-82
2023/12/28 10:10:50;;;;;;;4.10;1.33;;;;;;;10.83;79.76;100412.59;4933760;29;20522;-82
2023/12/28 10:13:18;;;;;;;2.78;1.25;;;;;;;10.75;79.95;100414.44;4929734;29;20059;-82
2023/12/28 10:15:47;;;;;;;5.28;1.67;;;;;;;10.70;79.94;100380.50;4920631;29;20077;-82
2023/12/28 10:18:13;;;;;;;3.38;1.00;;;;;;;10.79;79.75;100386.47;4931379;29;20125;-82
2023/12/28 10:20:43;;;;;;;14.32;1.95;;;;;;;10.76;79.36;100376.91;4946315;29;20061;-82
2023/12/28 10:23:11;;;;;;;6.50;1.42;;;;;;;10.75;78.79;100378.69;4935076;29;20039;-81
2023/12/28 10:25:42;;;;;;;6.53;2.42;;;;;;;10.83;78.93;100375.94;4925476;29;20167;-83
2023/12/28 10:28:08;;;;;;;2.85;1.15;;;;;;;10.91;78.61;100375.81;4916795;29;20044;-83
2023/12/28 10:30:35;;;;;;;8.48;2.15;;;;;;;10.88;78.36;100374.09;4938571;29;20047;-83
2023/12/28 10:33:02;;;;;;;4.25;1.10;;;;;;;10.91;77.96;100370.56;4914475;29;20051;-83
2023/12/28 10:35:31;;;;;;;6.32;1.35;;;;;;;11.04;77.28;100359.06;4915043;29;20035;-81
2023/12/28 10:38:03;;;;;;;1.63;1.05;;;;;;;11.11;76.52;100386.00;4940759;29;20048;-86
2023/12/28 10:40:33;;;;;;;6.32;1.50;;;;;;;11.17;76.53;100391.16;4928461;29;20114;-82
2023/12/28 10:43:03;;;;;;;3.95;1.50;;;;;;;11.18;76.25;100385.00;4914455;29;20058;-82
2023/12/28 10:45:34;;;;;;;6.20;1.55;;;;;;;11.10;76.29;100386.88;4930857;29;20043;-83
2023/12/28 10:48:07;;;;;;;8.52;1.67;;;;;;;11.08;76.53;100386.03;4931438;29;20058;-82
2023/12/28 10:50:45;;;;;;;5.10;1.38;;;;;;;11.10;76.56;100394.75;4939633;29;20047;-80
2023/12/28 10:53:25;;;;;;;8.68;1.90;;;;;;;11.04;76.84;100406.19;4933145;29;20485;-86
2023/12/28 10:56:13;;;;;;;9.20;2.33;;;;;;;11.08;76.67;100413.13;4931144;29;20054;-83
2023/12/28 10:59:07;;;;;;;5.78;1.52;;;;;;;11.00;76.26;100404.50;4928629;29;20062;-82
2023/12/28 11:01:38;;;;;;;5.35;1.15;;;;;;;11.06;76.49;100400.94;4923096;29;20078;-84
2023/12/28 11:04:36;;;;;;;4.70;1.45;;;;;;;11.09;76.01;100401.75;4933270;29;20039;-82
2023/12/28 11:07:04;;;;;;;10.93;2.50;;;;;;;11.08;75.83;100412.22;4928035;29;20043;-83
2023/12/28 11:09:32;;;;;;;4.55;1.60;;;;;;;11.14;75.99;100408.66;4936507;29;20421;-83
2023/12/28 11:12:00;;;;;;;7.18;1.25;;;;;;;11.15;75.69;100398.16;4912896;29;20077;-83
2023/12/28 11:14:28;;;;;;;5.13;1.45;;;;;;;11.11;75.55;100396.47;4927994;29;20047;-84
2023/12/28 11:16:56;;;;;;;4.43;1.30;;;;;;;11.06;75.50;100393.91;4930890;29;20039;-81
2023/12/28 11:19:23;;;;;;;3.38;1.33;;;;;;;11.14;76.01;100398.19;4926621;29;20047;-82
2023/12/28 11:21:51;;;;;;;7.88;2.38;;;;;;;11.03;76.21;100398.34;4928615;29;20127;-83
2023/12/28 11:24:18;;;;;;;9.25;1.55;;;;;;;11.06;76.35;100400.94;4918949;29;20385;-82
2023/12/28 11:26:46;;;;;;;6.10;2.25;;;;;;;11.09;76.40;100396.53;4918382;29;20044;-83
2023/12/28 11:29:13;;;;;;;8.68;1.20;;;;;;;11.03;76.38;100400.94;4913814;29;20047;-82
2023/12/28 11:31:39;;;;;;;4.47;1.60;;;;;;;10.95;76.38;100381.88;4944557;29;20142;-82
2023/12/28 11:34:10;;;;;;;2.17;1.35;;;;;;;10.99;76.12;100400.16;4947924;29;20492;-83